createdAt,value
2018-10-03T00:00:59.189Z,42.32
2018-10-03T00:01:59.090Z,42.63
2018-10-03T00:02:58.978Z,41.48
2018-10-03T00:03:58.879Z,42.13
2018-10-03T00:04:58.780Z,42.32
2018-10-03T00:05:58.682Z,43.94
2018-10-03T00:06:58.568Z,49.18
2018-10-03T00:07:58.469Z,47.85
2018-10-03T00:08:58.372Z,47.28
2018-10-03T00:09:58.270Z,45.65
2018-10-03T00:10:58.172Z,45.75
2018-10-03T00:11:58.059Z,43.94
2018-10-03T00:12:57.960Z,44.70
2018-10-03T00:13:57.860Z,44.89
2018-10-03T00:14:57.760Z,46.32
2018-10-03T00:15:57.649Z,42.22
2018-10-03T00:16:57.548Z,45.94
2018-10-03T00:17:57.454Z,47.28
2018-10-03T00:18:57.352Z,45.47
2018-10-03T00:19:57.251Z,47.94
2018-10-03T00:20:57.139Z,47.08
2018-10-03T00:21:57.038Z,45.84
2018-10-03T00:22:56.940Z,46.04
2018-10-03T00:23:56.840Z,48.61
2018-10-03T00:24:56.728Z,48.90
2018-10-03T00:25:56.628Z,47.37
2018-10-03T00:26:56.533Z,45.56
2018-10-03T00:27:56.429Z,45.56
2018-10-03T00:28:56.333Z,47.37
2018-10-03T00:29:56.218Z,44.89
2018-10-03T00:30:56.119Z,47.37
2018-10-03T00:31:56.020Z,48.04
2018-10-03T00:32:55.924Z,48.99
2018-10-03T00:33:55.810Z,49.56
2018-10-03T00:34:55.708Z,49.56
2018-10-03T00:35:55.611Z,48.23
2018-10-03T00:36:55.510Z,49.76
2018-10-03T00:37:55.400Z,50.61
2018-10-03T00:38:55.300Z,48.71
2018-10-03T00:39:55.199Z,49.66
2018-10-03T00:40:55.100Z,52.14
2018-10-03T00:41:55.000Z,51.85
2018-10-03T00:42:54.887Z,49.56
2018-10-03T00:43:54.789Z,51.76
2018-10-03T00:44:54.690Z,51.95
2018-10-03T00:45:54.589Z,51.95
2018-10-03T00:46:54.477Z,50.61
2018-10-03T00:47:54.379Z,50.42
2018-10-03T00:48:54.280Z,51.95
2018-10-03T00:49:54.184Z,50.90
2018-10-03T00:50:54.068Z,50.42
2018-10-03T00:51:53.969Z,50.71
2018-10-03T00:52:53.871Z,52.42
2018-10-03T00:53:53.769Z,52.23
2018-10-03T00:54:53.657Z,52.52
2018-10-03T00:55:53.558Z,51.95
2018-10-03T00:56:53.459Z,53.09
2018-10-03T00:57:53.362Z,51.85
2018-10-03T00:58:53.248Z,50.71
2018-10-03T00:59:53.148Z,52.90
2018-10-03T01:00:53.047Z,51.95
2018-10-03T01:01:52.949Z,52.80
2018-10-03T01:02:52.839Z,51.66
2018-10-03T01:03:52.738Z,51.09
2018-10-03T01:04:52.639Z,50.71
2018-10-03T01:05:52.539Z,51.66
2018-10-03T01:06:52.427Z,49.37
2018-10-03T01:07:52.327Z,51.09
2018-10-03T01:08:52.227Z,53.09
2018-10-03T01:09:52.128Z,54.24
2018-10-03T01:10:52.033Z,51.95
2018-10-03T01:11:51.917Z,52.61
2018-10-03T01:12:51.818Z,53.09
2018-10-03T01:13:51.718Z,51.18
2018-10-03T01:14:51.607Z,53.09
2018-10-03T01:15:51.506Z,52.90
2018-10-03T01:16:51.407Z,53.47
2018-10-03T01:17:51.308Z,53.00
2018-10-03T01:18:51.209Z,49.08
2018-10-03T01:19:51.098Z,51.47
2018-10-03T01:20:50.999Z,46.80
2018-10-03T01:21:50.898Z,46.42
2018-10-03T01:22:50.812Z,49.28
2018-10-03T01:23:50.686Z,46.89
2018-10-03T01:24:50.586Z,46.23
2018-10-03T01:25:50.487Z,48.80
2018-10-03T01:26:50.427Z,49.56
2018-10-03T01:27:50.276Z,46.23
2018-10-03T01:28:50.177Z,49.47
2018-10-03T01:29:50.078Z,48.80
2018-10-03T01:30:49.977Z,49.56
2018-10-03T01:31:49.868Z,49.08
2018-10-03T01:32:49.766Z,48.42
2018-10-03T01:33:49.667Z,49.18
2018-10-03T01:34:49.567Z,49.95
2018-10-03T01:35:49.467Z,49.95
2018-10-03T01:36:49.356Z,47.85
2018-10-03T01:37:49.256Z,47.85
2018-10-03T01:38:49.157Z,48.99
2018-10-03T01:39:49.097Z,49.08
2018-10-03T01:40:48.946Z,49.08
2018-10-03T01:41:48.846Z,51.28
2018-10-03T01:42:48.748Z,49.85
2018-10-03T01:43:48.646Z,53.09
2018-10-03T01:44:48.536Z,49.08
2018-10-03T01:45:48.687Z,46.04
2018-10-03T01:46:48.337Z,43.27
2018-10-03T01:47:48.237Z,44.42
2018-10-03T01:48:48.125Z,44.32
2018-10-03T01:49:48.026Z,39.15
2018-10-03T01:50:47.927Z,38.78
2018-10-03T01:51:47.827Z,38.68
2018-10-03T01:52:47.716Z,40.58
2018-10-03T01:53:47.615Z,39.92
2018-10-03T01:54:47.518Z,39.82
2018-10-03T01:55:47.416Z,39.82
2018-10-03T01:56:47.304Z,39.34
2018-10-03T01:57:47.204Z,39.82
2018-10-03T01:58:47.107Z,41.53
2018-10-03T01:59:47.006Z,38.96
2018-10-03T02:00:46.895Z,41.16
2018-10-03T02:01:46.795Z,41.25
2018-10-03T02:02:46.696Z,40.97
2018-10-03T02:03:46.596Z,41.63
2018-10-03T02:04:46.484Z,42.40
2018-10-03T02:05:46.387Z,42.30
2018-10-03T02:06:46.286Z,43.35
2018-10-03T02:07:46.185Z,42.40
2018-10-03T02:08:46.074Z,42.68
2018-10-03T02:09:45.975Z,44.39
2018-10-03T02:10:46.125Z,46.11
2018-10-03T02:11:45.763Z,45.44
2018-10-03T02:12:45.662Z,46.78
2018-10-03T02:13:45.565Z,47.25
2018-10-03T02:14:45.513Z,47.25
2018-10-03T02:15:45.353Z,46.87
2018-10-03T02:16:45.259Z,49.26
2018-10-03T02:17:45.154Z,47.73
2018-10-03T02:18:45.044Z,46.30
2018-10-03T02:19:44.943Z,48.87
2018-10-03T02:20:45.092Z,49.16
2018-10-03T02:21:44.743Z,49.16
2018-10-03T02:22:44.633Z,48.30
2018-10-03T02:23:44.533Z,48.02
2018-10-03T02:24:44.433Z,48.78
2018-10-03T02:25:44.334Z,50.87
2018-10-03T02:26:44.233Z,51.45
2018-10-03T02:27:44.130Z,51.73
2018-10-03T02:28:44.028Z,52.97
2018-10-03T02:29:43.923Z,54.30
2018-10-03T02:30:43.813Z,53.66
2018-10-03T02:31:43.712Z,53.44
2018-10-03T02:32:43.613Z,56.78
2018-10-03T02:33:43.500Z,54.02
2018-10-03T02:34:43.403Z,54.24
2018-10-03T02:35:43.300Z,52.49
2018-10-03T02:36:43.201Z,55.85
2018-10-03T02:37:43.090Z,56.90
2018-10-03T02:38:42.991Z,56.33
2018-10-03T02:39:42.891Z,56.14
2018-10-03T02:40:43.079Z,56.33
2018-10-03T02:41:42.681Z,56.24
2018-10-03T02:42:42.580Z,59.19
2018-10-03T02:43:42.480Z,56.33
2018-10-03T02:44:42.370Z,56.90
2018-10-03T02:45:42.275Z,57.28
2018-10-03T02:46:42.171Z,59.67
2018-10-03T02:47:42.059Z,58.52
2018-10-03T02:48:41.961Z,60.33
2018-10-03T02:49:41.860Z,59.28
2018-10-03T02:50:41.759Z,59.67
2018-10-03T02:51:41.651Z,60.52
2018-10-03T02:52:41.550Z,60.14
2018-10-03T02:53:41.450Z,59.38
2018-10-03T02:54:41.356Z,57.28
2018-10-03T02:55:41.238Z,57.38
2018-10-03T02:56:41.139Z,57.38
2018-10-03T02:57:41.039Z,52.61
2018-10-03T02:58:40.940Z,50.61
2018-10-03T02:59:40.828Z,47.16
2018-10-03T03:00:41.029Z,46.01
2018-10-03T03:01:40.678Z,43.91
2018-10-03T03:02:40.517Z,43.35
2018-10-03T03:03:40.417Z,44.30
2018-10-03T03:04:40.318Z,42.11
2018-10-03T03:05:40.219Z,42.11
2018-10-03T03:06:40.108Z,43.16
2018-10-03T03:07:40.009Z,42.40
2018-10-03T03:08:39.976Z,42.77
2018-10-03T03:09:39.813Z,42.20
2018-10-03T03:10:39.696Z,40.75
2018-10-03T03:11:39.596Z,41.80
2018-10-03T03:12:39.503Z,41.61
2018-10-03T03:13:39.415Z,42.47
2018-10-03T03:14:39.289Z,42.66
2018-10-03T03:15:39.188Z,42.08
2018-10-03T03:16:39.088Z,42.94
2018-10-03T03:17:38.980Z,43.90
2018-10-03T03:18:38.877Z,42.76
2018-10-03T03:19:38.776Z,45.32
2018-10-03T03:20:38.677Z,46.56
2018-10-03T03:21:38.565Z,46.75
2018-10-03T03:22:38.466Z,46.94
2018-10-03T03:23:38.366Z,46.18
2018-10-03T03:24:38.267Z,47.13
2018-10-03T03:25:38.156Z,48.49
2018-10-03T03:26:38.059Z,49.26
2018-10-03T03:27:37.960Z,49.16
2018-10-03T03:28:37.844Z,48.97
2018-10-03T03:29:37.745Z,49.63
2018-10-03T03:30:37.646Z,48.97
2018-10-03T03:31:37.533Z,48.97
2018-10-03T03:32:37.434Z,50.21
2018-10-03T03:33:37.333Z,48.30
2018-10-03T03:34:37.238Z,47.16
2018-10-03T03:35:37.130Z,48.58
2018-10-03T03:36:37.024Z,48.68
2018-10-03T03:37:36.924Z,48.30
2018-10-03T03:38:36.811Z,48.87
2018-10-03T03:39:36.713Z,48.97
2018-10-03T03:40:36.912Z,48.97
2018-10-03T03:41:36.513Z,50.11
2018-10-03T03:42:36.402Z,51.73
2018-10-03T03:43:36.303Z,51.45
2018-10-03T03:44:36.203Z,52.59
2018-10-03T03:45:36.091Z,53.44
2018-10-03T03:46:35.995Z,53.73
2018-10-03T03:47:35.893Z,55.73
2018-10-03T03:48:35.783Z,55.44
2018-10-03T03:49:35.682Z,55.35
2018-10-03T03:50:35.581Z,55.26
2018-10-03T03:51:35.471Z,54.02
2018-10-03T03:52:35.369Z,54.39
2018-10-03T03:53:35.271Z,54.11
2018-10-03T03:54:35.172Z,55.92
2018-10-03T03:55:35.060Z,54.97
2018-10-03T03:56:34.961Z,54.68
2018-10-03T03:57:34.863Z,53.54
2018-10-03T03:58:34.749Z,53.54
2018-10-03T03:59:34.649Z,52.97
2018-10-03T04:00:34.801Z,52.68
2018-10-03T04:01:34.452Z,54.02
2018-10-03T04:02:34.339Z,51.92
2018-10-03T04:03:34.240Z,55.83
2018-10-03T04:04:34.141Z,56.02
2018-10-03T04:05:34.028Z,56.02
2018-10-03T04:06:33.928Z,54.30
2018-10-03T04:07:33.828Z,56.68
2018-10-03T04:08:33.732Z,56.87
2018-10-03T04:09:33.618Z,58.30
2018-10-03T04:10:33.519Z,56.78
2018-10-03T04:11:33.418Z,57.64
2018-10-03T04:12:33.307Z,57.82
2018-10-03T04:13:33.209Z,58.24
2018-10-03T04:14:33.108Z,58.59
2018-10-03T04:15:33.008Z,58.50
2018-10-03T04:16:32.898Z,58.24
2018-10-03T04:17:32.798Z,59.00
2018-10-03T04:18:32.700Z,57.92
2018-10-03T04:19:32.587Z,59.09
2018-10-03T04:20:32.736Z,58.62
2018-10-03T04:21:32.386Z,59.06
2018-10-03T04:22:32.288Z,58.50
2018-10-03T04:23:32.175Z,58.87
2018-10-03T04:24:32.076Z,58.40
2018-10-03T04:25:31.980Z,59.38
2018-10-03T04:26:31.865Z,58.87
2018-10-03T04:27:31.764Z,60.81
2018-10-03T04:28:31.665Z,60.14
2018-10-03T04:29:31.566Z,60.11
2018-10-03T04:30:31.454Z,59.83
2018-10-03T04:31:31.354Z,59.09
2018-10-03T04:32:31.256Z,60.02
2018-10-03T04:33:31.156Z,59.74
2018-10-03T04:34:31.043Z,64.15
2018-10-03T04:35:30.994Z,64.05
2018-10-03T04:36:30.845Z,66.63
2018-10-03T04:37:30.746Z,64.53
2018-10-03T04:38:30.634Z,65.58
2018-10-03T04:39:30.535Z,66.91
2018-10-03T04:40:30.735Z,65.10
2018-10-03T04:41:30.336Z,65.86
2018-10-03T04:42:30.223Z,65.00
2018-10-03T04:43:30.124Z,64.43
2018-10-03T04:44:30.025Z,64.53
2018-10-03T04:45:29.925Z,63.96
2018-10-03T04:46:29.815Z,64.43
2018-10-03T04:47:29.713Z,63.76
2018-10-03T04:48:29.614Z,60.62
2018-10-03T04:49:29.515Z,61.19
2018-10-03T04:50:29.416Z,60.81
2018-10-03T04:51:29.305Z,59.19
2018-10-03T04:52:29.204Z,60.52
2018-10-03T04:53:29.093Z,60.72
2018-10-03T04:54:28.992Z,61.76
2018-10-03T04:55:28.893Z,61.86
2018-10-03T04:56:28.794Z,61.19
2018-10-03T04:57:28.681Z,60.52
2018-10-03T04:58:28.584Z,60.62
2018-10-03T04:59:28.482Z,60.91
2018-10-03T05:00:28.383Z,58.91
2018-10-03T05:01:28.271Z,60.91
2018-10-03T05:02:28.172Z,60.97
2018-10-03T05:03:28.073Z,60.62
2018-10-03T05:04:27.974Z,60.05
2018-10-03T05:05:27.861Z,60.62
2018-10-03T05:06:27.762Z,61.00
2018-10-03T05:07:27.661Z,60.72
2018-10-03T05:08:27.563Z,61.38
2018-10-03T05:09:27.452Z,60.05
2018-10-03T05:10:27.352Z,62.52
2018-10-03T05:11:27.335Z,62.43
2018-10-03T05:12:27.142Z,61.29
2018-10-03T05:13:27.043Z,60.43
2018-10-03T05:14:26.942Z,59.95
2018-10-03T05:15:26.843Z,61.10
2018-10-03T05:16:26.731Z,61.86
2018-10-03T05:17:26.633Z,61.96
2018-10-03T05:18:26.532Z,61.86
2018-10-03T05:19:26.433Z,62.52
2018-10-03T05:20:26.320Z,61.76
2018-10-03T05:21:26.239Z,63.57
2018-10-03T05:22:26.120Z,63.20
2018-10-03T05:23:26.021Z,62.43
2018-10-03T05:24:25.909Z,63.57
2018-10-03T05:25:25.810Z,62.05
2018-10-03T05:26:25.711Z,62.91
2018-10-03T05:27:25.612Z,62.34
2018-10-03T05:28:25.499Z,62.15
2018-10-03T05:29:25.400Z,62.05
2018-10-03T05:30:25.300Z,61.67
2018-10-03T05:31:25.200Z,63.67
2018-10-03T05:32:25.090Z,63.76
2018-10-03T05:33:25.014Z,63.48
2018-10-03T05:34:24.891Z,63.10
2018-10-03T05:35:24.792Z,62.34
2018-10-03T05:36:24.679Z,63.96
2018-10-03T05:37:24.579Z,63.76
2018-10-03T05:38:24.480Z,63.57
2018-10-03T05:39:24.383Z,63.86
2018-10-03T05:40:24.269Z,62.91
2018-10-03T05:41:24.169Z,62.52
2018-10-03T05:42:24.070Z,63.00
2018-10-03T05:43:23.971Z,62.72
2018-10-03T05:44:23.859Z,61.96
2018-10-03T05:45:24.012Z,63.57
2018-10-03T05:46:23.659Z,62.24
2018-10-03T05:47:23.560Z,63.96
2018-10-03T05:48:23.493Z,63.10
2018-10-03T05:49:23.349Z,62.62
2018-10-03T05:50:23.250Z,62.72
2018-10-03T05:51:23.151Z,63.96
2018-10-03T05:52:23.050Z,63.20
2018-10-03T05:53:22.943Z,63.67
2018-10-03T05:54:22.839Z,63.57
2018-10-03T05:55:22.739Z,63.00
2018-10-03T05:56:22.629Z,63.48
2018-10-03T05:57:22.532Z,63.57
2018-10-03T05:58:22.430Z,63.67
2018-10-03T05:59:22.330Z,63.48
2018-10-03T06:00:22.219Z,64.15
2018-10-03T06:01:22.118Z,62.24
2018-10-03T06:02:22.018Z,63.10
2018-10-03T06:03:21.920Z,63.76
2018-10-03T06:04:21.808Z,63.57
2018-10-03T06:05:21.709Z,63.29
2018-10-03T06:06:21.608Z,64.34
2018-10-03T06:07:21.510Z,63.10
2018-10-03T06:08:21.398Z,63.00
2018-10-03T06:09:21.297Z,63.57
2018-10-03T06:10:21.197Z,65.10
2018-10-03T06:11:21.101Z,63.57
2018-10-03T06:12:20.999Z,63.57
2018-10-03T06:13:20.887Z,64.34
2018-10-03T06:14:20.788Z,63.76
2018-10-03T06:15:20.691Z,64.53
2018-10-03T06:16:20.592Z,64.62
2018-10-03T06:17:20.478Z,63.29
2018-10-03T06:18:20.378Z,63.20
2018-10-03T06:19:20.277Z,63.86
2018-10-03T06:20:20.179Z,65.29
2018-10-03T06:21:20.078Z,65.39
2018-10-03T06:22:19.968Z,65.29
2018-10-03T06:23:19.868Z,63.57
2018-10-03T06:24:19.771Z,63.86
2018-10-03T06:25:19.919Z,64.56
2018-10-03T06:26:19.557Z,64.28
2018-10-03T08:02:09.824Z,73.32
2018-10-03T08:03:09.724Z,71.59
2018-10-03T08:04:09.613Z,70.26
2018-10-03T08:05:09.500Z,70.26
2018-10-03T08:06:09.405Z,72.36
2018-10-03T08:07:09.301Z,70.73
2018-10-03T08:08:09.202Z,72.83
2018-10-03T08:09:09.105Z,72.36
2018-10-03T08:10:09.087Z,72.97
2018-10-03T08:11:08.905Z,71.53
2018-10-03T08:12:08.804Z,72.64
2018-10-03T08:13:08.693Z,72.58
2018-10-03T08:14:08.595Z,72.11
2018-10-03T08:15:08.493Z,73.73
2018-10-03T08:16:08.394Z,73.16
2018-10-03T08:17:08.294Z,73.25
2018-10-03T08:18:08.196Z,73.25
2018-10-03T08:19:08.095Z,72.97
2018-10-03T08:20:07.996Z,72.87
2018-10-03T08:21:07.896Z,73.63
2018-10-03T08:22:07.798Z,74.30
2018-10-03T08:23:07.685Z,73.73
2018-10-03T08:24:07.587Z,72.87
2018-10-03T08:25:07.487Z,72.68
2018-10-03T08:26:07.388Z,73.92
2018-10-03T08:27:07.288Z,73.44
2018-10-03T08:28:07.189Z,72.87
2018-10-03T08:29:07.089Z,72.58
2018-10-03T08:30:07.052Z,72.58
2018-10-03T08:31:06.891Z,73.35
2018-10-03T08:32:06.791Z,73.83
2018-10-03T08:33:06.694Z,73.16
2018-10-03T08:34:06.593Z,72.20
2018-10-03T08:35:06.493Z,73.44
2018-10-03T08:36:06.393Z,72.97
2018-10-03T08:37:06.282Z,71.72
2018-10-03T08:38:06.181Z,71.31
2018-10-03T08:39:06.082Z,72.26
2018-10-03T08:40:05.982Z,71.69
2018-10-03T08:41:05.883Z,72.20
2018-10-03T08:42:05.783Z,72.39
2018-10-03T08:43:05.684Z,73.44
2018-10-03T08:44:05.591Z,75.49
2018-10-03T08:45:05.485Z,74.98
2018-10-03T08:46:05.391Z,76.45
2018-10-03T08:47:05.287Z,74.63
2018-10-03T08:48:05.189Z,74.73
2018-10-03T08:49:05.088Z,74.78
2018-10-03T08:50:04.989Z,74.78
2018-10-03T08:51:04.877Z,74.69
2018-10-03T08:52:04.778Z,77.11
2018-10-03T08:53:04.678Z,76.54
2018-10-03T08:54:04.580Z,76.16
2018-10-03T08:55:04.479Z,75.39
2018-10-03T08:56:04.380Z,76.54
2018-10-03T08:57:04.281Z,76.54
2018-10-03T08:58:04.197Z,76.45
2018-10-03T08:59:04.081Z,77.21
2018-10-03T09:00:03.983Z,76.54
2018-10-03T09:01:03.883Z,76.64
2018-10-03T09:02:03.787Z,77.78
2018-10-03T09:03:03.683Z,77.65
2018-10-03T09:04:03.586Z,75.30
2018-10-03T09:05:03.488Z,78.36
2018-10-03T09:06:03.386Z,77.11
2018-10-03T09:07:03.286Z,77.30
2018-10-03T09:08:03.187Z,79.36
2018-10-03T09:09:03.087Z,78.45
2018-10-03T09:10:02.987Z,78.41
2018-10-03T09:11:02.888Z,78.31
2018-10-03T09:12:02.789Z,77.94
2018-10-03T09:13:02.689Z,77.74
2018-10-03T09:14:02.580Z,77.65
2018-10-03T09:15:02.478Z,77.55
2018-10-03T09:16:02.382Z,78.26
2018-10-03T09:17:02.281Z,79.41
2018-10-03T09:18:02.179Z,78.16
2018-10-03T09:19:02.093Z,78.07
2018-10-03T09:20:01.995Z,77.87
2018-10-03T09:21:01.881Z,77.87
2018-10-03T09:22:01.790Z,77.97
2018-10-03T09:23:01.681Z,77.21
2018-10-03T09:24:01.584Z,79.22
2018-10-03T09:25:01.484Z,79.02
2018-10-03T09:26:01.383Z,78.74
2018-10-03T09:27:01.286Z,77.87
2018-10-03T09:28:01.185Z,79.44
2018-10-03T09:29:01.085Z,80.59
2018-10-03T09:30:00.987Z,79.12
2018-10-03T09:31:00.886Z,78.64
2018-10-03T09:32:00.788Z,78.45
2018-10-03T09:33:00.688Z,78.83
2018-10-03T09:34:00.591Z,79.12
2018-10-03T09:35:00.489Z,77.97
2018-10-03T09:36:00.390Z,78.55
2018-10-03T09:37:00.289Z,80.07
2018-10-03T09:38:00.190Z,78.07
2018-10-03T09:39:00.090Z,79.22
2018-10-03T09:39:59.991Z,79.22
2018-10-03T09:40:59.892Z,78.93
2018-10-03T09:41:59.792Z,77.69
2018-10-03T09:42:59.693Z,78.64
2018-10-03T09:43:59.594Z,78.83
2018-10-03T09:44:59.498Z,78.74
2018-10-03T09:45:59.397Z,77.78
2018-10-03T09:46:59.296Z,78.74
2018-10-03T09:47:59.196Z,79.93
2018-10-03T09:48:59.097Z,79.25
2018-10-03T09:49:58.998Z,80.36
2018-10-03T09:50:58.897Z,79.60
2018-10-03T09:51:58.803Z,80.07
2018-10-03T09:52:58.697Z,79.31
2018-10-03T09:53:58.599Z,78.16
2018-10-03T09:54:58.500Z,78.45
2018-10-03T09:55:58.400Z,79.31
2018-10-03T09:56:58.300Z,79.25
2018-10-03T09:57:58.201Z,78.30
2018-10-03T09:58:58.106Z,79.35
2018-10-03T09:59:58.009Z,78.49
2018-10-03T10:00:57.975Z,78.64
2018-10-03T10:01:57.792Z,77.40
2018-10-03T10:02:57.692Z,78.74
2018-10-03T10:03:57.604Z,77.78
2018-10-03T10:04:57.508Z,76.64
2018-10-03T10:05:57.406Z,76.92
2018-10-03T10:06:57.305Z,74.82
2018-10-03T10:07:57.206Z,74.24
2018-10-03T10:08:57.098Z,73.86
2018-10-03T10:09:56.995Z,76.25
2018-10-03T10:10:56.898Z,76.16
2018-10-03T10:11:56.797Z,76.16
2018-10-03T10:12:56.700Z,77.01
2018-10-03T10:13:56.598Z,77.50
2018-10-03T10:14:56.498Z,73.10
2018-10-03T10:15:56.400Z,77.87
2018-10-03T10:16:56.302Z,77.11
2018-10-03T10:17:56.201Z,77.40
2018-10-03T10:18:56.100Z,75.39
2018-10-03T10:19:56.002Z,77.78
2018-10-03T10:20:56.007Z,76.82
2018-10-03T10:21:55.802Z,76.73
2018-10-03T10:22:55.703Z,75.05
2018-10-03T10:23:55.604Z,72.81
2018-10-03T10:24:55.504Z,60.64
2018-10-03T10:25:55.404Z,60.04
2018-10-03T10:26:55.305Z,54.89
2018-10-03T10:27:55.206Z,63.86
2018-10-03T10:28:55.106Z,54.99
2018-10-03T10:29:55.007Z,57.94
2018-10-03T10:30:54.908Z,60.14
2018-10-03T10:31:54.879Z,63.39
2018-10-03T10:32:54.735Z,60.61
2018-10-03T10:33:54.613Z,65.20
2018-10-03T10:34:54.510Z,59.76
2018-10-03T10:35:54.410Z,62.15
2018-10-03T10:36:54.310Z,65.87
2018-10-03T10:37:54.261Z,69.02
2018-10-03T10:38:54.118Z,69.97
2018-10-03T10:39:54.014Z,74.69
2018-10-03T10:40:53.983Z,71.15
2018-10-03T10:41:53.817Z,74.11
2018-10-03T10:42:53.716Z,72.11
2018-10-03T10:43:53.617Z,70.33
2018-10-03T10:44:53.517Z,72.58
2018-10-03T10:45:53.404Z,62.75
2018-10-03T10:46:53.304Z,61.79
2018-10-03T10:47:53.203Z,56.80
2018-10-03T10:48:53.107Z,52.79
2018-10-03T10:49:53.005Z,50.78
2018-10-03T10:50:52.906Z,50.95
2018-10-03T10:51:52.871Z,47.32
2018-10-03T10:52:52.707Z,43.79
2018-10-03T10:53:52.607Z,47.80
2018-10-03T10:54:52.508Z,44.84
2018-10-03T10:55:52.407Z,46.75
2018-10-03T10:56:52.309Z,42.36
2018-10-03T10:57:52.209Z,46.63
2018-10-03T10:58:52.111Z,45.01
2018-10-03T10:59:52.115Z,41.00
2018-10-03T11:00:51.925Z,35.59
2018-10-03T11:01:51.813Z,39.10
2018-10-03T11:02:51.700Z,40.17
2018-10-03T11:03:51.601Z,47.13
2018-10-03T11:04:51.752Z,48.47
2018-10-03T11:05:51.402Z,50.31
2018-10-03T11:06:51.309Z,61.10
2018-10-03T11:07:51.204Z,65.23
2018-10-03T11:08:51.103Z,59.50
2018-10-03T11:09:51.004Z,58.93
2018-10-03T11:10:50.906Z,55.90
2018-10-03T11:11:50.810Z,62.97
2018-10-03T11:12:50.708Z,69.47
2018-10-03T11:13:50.609Z,68.13
2018-10-03T11:14:50.507Z,64.69
2018-10-03T11:15:50.396Z,66.50
2018-10-03T11:16:50.321Z,69.34
2018-10-03T11:17:50.195Z,64.94
2018-10-03T11:18:50.096Z,60.27
2018-10-03T11:19:49.996Z,60.71
2018-10-03T11:20:49.897Z,53.93
2018-10-03T11:21:49.797Z,49.26
2018-10-03T11:22:49.699Z,32.82
2018-10-03T11:23:49.631Z,26.04
2018-10-03T11:24:49.594Z,24.60
2018-10-03T11:25:49.402Z,27.84
2018-10-03T11:26:49.302Z,24.89
2018-10-03T11:27:49.202Z,21.26
2018-10-03T11:28:49.104Z,20.40
2018-10-03T11:29:49.005Z,23.92
2018-10-03T11:30:48.892Z,22.02
2018-10-03T11:31:48.792Z,18.87
2018-10-03T11:32:48.692Z,18.49
2018-10-03T11:33:48.592Z,19.16
2018-10-03T11:34:48.498Z,18.68
2018-10-03T11:35:48.397Z,17.54
2018-10-03T11:36:48.298Z,17.72
2018-10-03T11:37:48.184Z,17.25
2018-10-03T11:38:48.082Z,20.20
2018-10-03T11:39:47.983Z,19.44
2018-10-03T11:40:47.885Z,19.73
2018-10-03T11:41:47.785Z,23.16
2018-10-03T11:42:47.684Z,25.92
2018-10-03T11:43:47.589Z,24.30
2018-10-03T11:44:47.474Z,24.02
2018-10-03T11:45:47.375Z,23.44
2018-10-03T11:46:47.274Z,22.59
2018-10-03T11:47:47.176Z,24.11
2018-10-03T11:48:47.076Z,29.16
2018-10-03T11:49:46.978Z,24.78
2018-10-03T11:50:46.922Z,27.64
2018-10-03T11:51:46.765Z,26.68
2018-10-03T11:52:46.667Z,28.51
2018-10-03T11:53:46.566Z,27.83
2018-10-03T11:54:46.467Z,27.18
2018-10-03T11:55:46.372Z,26.13
2018-10-03T11:56:46.256Z,28.70
2018-10-03T11:57:46.156Z,27.08
2018-10-03T11:58:46.057Z,32.90
2018-10-03T11:59:45.958Z,40.34
2018-10-03T12:00:45.859Z,38.53
2018-10-03T12:01:45.747Z,32.06
2018-10-03T12:02:45.723Z,30.53
2018-10-03T12:03:45.547Z,29.86
2018-10-03T12:04:45.447Z,30.05
2018-10-03T12:05:45.348Z,39.59
2018-10-03T12:06:45.251Z,41.98
2018-10-03T12:07:45.149Z,44.56
2018-10-03T12:08:45.058Z,48.66
2018-10-03T12:09:44.939Z,45.03
2018-10-03T12:10:44.839Z,49.23
2018-10-03T12:11:44.739Z,48.39
2018-10-03T12:12:44.640Z,56.32
2018-10-03T12:13:44.547Z,58.14
2018-10-03T12:14:44.429Z,58.14
2018-10-03T12:15:44.331Z,55.65
2018-10-03T12:16:44.228Z,51.83
2018-10-03T12:17:44.129Z,56.13
2018-10-03T12:18:44.034Z,53.93
2018-10-03T12:19:43.933Z,61.19
2018-10-03T12:20:43.819Z,73.44
2018-10-03T12:21:43.727Z,63.13
2018-10-03T12:22:43.621Z,61.22
2018-10-03T12:23:43.523Z,58.14
2018-10-03T12:24:43.421Z,61.22
2018-10-03T12:25:43.310Z,64.85
2018-10-03T12:26:43.212Z,69.05
2018-10-03T12:27:43.110Z,66.95
2018-10-03T12:28:43.010Z,63.80
2018-10-03T12:29:42.910Z,61.98
2018-10-03T12:30:42.812Z,70.39
2018-10-03T12:31:42.713Z,67.24
2018-10-03T12:32:42.607Z,71.28
2018-10-03T12:33:42.571Z,70.14
2018-10-03T12:34:42.404Z,75.39
2018-10-03T12:35:42.303Z,71.89
2018-10-03T12:36:42.204Z,67.21
2018-10-03T12:37:42.104Z,73.65
2018-10-03T12:38:41.994Z,71.93
2018-10-03T12:39:42.192Z,73.55
2018-10-03T12:40:41.792Z,73.94
2018-10-03T12:41:41.693Z,74.22
2018-10-03T12:42:41.593Z,75.18
2018-10-03T12:43:41.493Z,78.05
2018-10-03T12:44:41.396Z,73.36
2018-10-03T12:45:41.308Z,73.61
2018-10-03T12:46:41.210Z,75.09
2018-10-03T12:47:41.101Z,74.04
2018-10-03T12:48:40.997Z,74.51
2018-10-03T12:49:40.887Z,76.08
2018-10-03T12:50:40.786Z,77.95
2018-10-03T12:51:40.687Z,81.68
2018-10-03T12:52:40.586Z,76.52
2018-10-03T12:53:40.488Z,76.62
2018-10-03T12:54:40.414Z,77.33
2018-10-03T12:55:40.289Z,80.35
2018-10-03T12:56:40.191Z,78.86
2018-10-03T12:57:40.096Z,76.94
2018-10-03T12:58:39.992Z,80.19
2018-10-03T12:59:39.895Z,76.65
2018-10-03T13:00:39.793Z,78.19
2018-10-03T13:01:39.693Z,78.76
2018-10-03T13:02:39.594Z,77.61
2018-10-03T13:03:39.494Z,81.25
2018-10-03T13:04:39.395Z,77.95
2018-10-03T13:05:39.295Z,76.52
2018-10-03T13:06:39.196Z,76.56
2018-10-03T13:07:39.097Z,74.45
2018-10-03T13:08:38.997Z,82.93
2018-10-03T13:09:38.897Z,78.63
2018-10-03T13:10:38.799Z,78.14
2018-10-03T13:11:38.701Z,81.40
2018-10-03T13:12:38.599Z,77.86
2018-10-03T13:13:38.487Z,78.91
2018-10-03T13:14:38.389Z,82.49
2018-10-03T13:15:38.300Z,81.73
2018-10-03T13:16:38.201Z,82.49
2018-10-03T13:17:38.104Z,82.59
2018-10-03T13:18:37.991Z,79.96
2018-10-03T13:19:37.890Z,80.16
2018-10-03T13:20:37.791Z,81.59
2018-10-03T13:21:37.692Z,80.82
2018-10-03T13:22:37.592Z,80.82
2018-10-03T13:23:37.493Z,81.40
2018-10-03T13:24:37.393Z,81.49
2018-10-03T13:25:37.294Z,80.16
2018-10-03T13:26:37.193Z,81.59
2018-10-03T13:27:37.095Z,80.06
2018-10-03T13:28:36.996Z,81.40
2018-10-03T13:29:36.899Z,79.77
2018-10-03T13:30:36.817Z,81.49
2018-10-03T13:31:36.697Z,81.40
2018-10-03T13:32:36.599Z,81.40
2018-10-03T13:33:36.497Z,81.44
2018-10-03T13:34:36.398Z,79.49
2018-10-03T13:35:36.300Z,81.44
2018-10-03T13:36:36.199Z,81.44
2018-10-03T13:37:36.100Z,80.25
2018-10-03T13:38:36.001Z,80.25
2018-10-03T13:39:36.151Z,80.63
2018-10-03T13:40:35.803Z,80.35
2018-10-03T13:41:35.774Z,81.21
2018-10-03T13:42:35.603Z,80.16
2018-10-03T13:43:35.503Z,81.11
2018-10-03T13:44:35.404Z,82.17
2018-10-03T13:45:35.304Z,81.97
2018-10-03T13:46:35.285Z,80.92
2018-10-03T13:47:35.106Z,80.16
2018-10-03T13:48:35.007Z,81.11
2018-10-03T13:49:34.907Z,80.16
2018-10-03T13:50:34.807Z,80.35
2018-10-03T13:51:34.722Z,79.96
2018-10-03T13:52:34.608Z,80.16
2018-10-03T13:53:34.509Z,79.77
2018-10-03T13:54:34.411Z,79.96
2018-10-03T13:55:34.310Z,80.25
2018-10-03T13:56:34.211Z,79.77
2018-10-03T13:57:34.099Z,80.25
2018-10-03T13:58:34.000Z,80.16
2018-10-03T13:59:33.902Z,79.87
2018-10-03T14:00:33.802Z,80.38
2018-10-03T14:01:33.702Z,80.00
2018-10-03T14:02:33.602Z,79.33
2018-10-03T14:03:33.502Z,79.62
2018-10-03T14:04:33.404Z,78.47
2018-10-03T14:05:33.304Z,79.91
2018-10-03T14:06:33.208Z,78.57
2018-10-03T14:07:33.105Z,78.95
2018-10-03T14:08:33.006Z,78.66
2018-10-03T14:09:32.906Z,79.81
2018-10-03T14:10:32.810Z,78.38
2018-10-03T14:11:32.710Z,78.76
2018-10-03T14:12:32.609Z,79.81
2018-10-03T14:13:32.512Z,79.91
2018-10-03T14:14:32.410Z,79.62
2018-10-03T14:15:32.310Z,78.95
2018-10-03T14:16:32.212Z,78.47
2018-10-03T14:17:32.112Z,78.66
2018-10-03T14:18:32.083Z,78.95
2018-10-03T14:19:31.911Z,80.19
2018-10-03T14:20:31.812Z,79.81
2018-10-03T14:21:31.715Z,78.86
2018-10-03T14:22:31.614Z,79.33
2018-10-03T14:23:31.514Z,78.66
2018-10-03T14:24:31.479Z,79.14
2018-10-03T14:25:31.303Z,79.24
2018-10-03T14:26:31.203Z,79.20